Time;durP1;ratioP1;P1;durP2;ratioP2;P2;SDS_P1;SDS_P2;PMS_P1;PMS_P2;Temp;Humidity;BMP_temperature;BMP_pressure;BME280_temperature;BME280_humidity;BME280_pressure;Samples;Min_cycle;Max_cycle;Signal;HPM_P1;HPM_P2
2022/09/27 00:02:36;;;;;;;0.00;0.00;;;;;;;;;;10407421;28;20214;-79
2022/09/27 00:07:37;;;;;;;0.00;0.00;;;;;;;;;;10389715;28;21053;-79
2022/09/27 00:12:38;;;;;;;0.00;0.00;;;;;;;;;;10408876;28;20231;-79
2022/09/27 00:17:40;;;;;;;0.10;0.10;;;;;;;;;;10395723;28;20249;-78
2022/09/27 00:22:41;;;;;;;0.00;0.00;;;;;;;;;;10406268;28;20245;-79
2022/09/27 00:27:42;;;;;;;0.05;0.05;;;;;;;;;;10388335;28;20218;-79
2022/09/27 00:32:43;;;;;;;0.10;0.10;;;;;;;;;;10411241;28;20215;-79
2022/09/27 00:37:47;;;;;;;0.05;0.03;;;;;;;;;;10411043;28;20976;-79
2022/09/27 00:42:48;;;;;;;0.05;0.05;;;;;;;;;;10400345;28;20219;-79
2022/09/27 00:47:52;;;;;;;0.10;0.10;;;;;;;;;;10405695;28;20713;-79
2022/09/27 00:52:56;;;;;;;0.10;0.10;;;;;;;;;;10408021;28;20281;-78
2022/09/27 00:57:58;;;;;;;0.00;0.00;;;;;;;;;;10386944;28;20265;-80
2022/09/27 01:02:59;;;;;;;0.08;0.08;;;;;;;;;;10408445;28;20221;-81
2022/09/27 01:08:00;;;;;;;0.00;0.00;;;;;;;;;;10400722;28;20265;-79
2022/09/27 01:13:13;;;;;;;0.10;0.10;;;;;;;;;;10397286;28;20294;-79
2022/09/27 01:18:40;;;;;;;0.10;0.10;;;;;;;;;;10378463;28;20215;-79
2022/09/27 01:23:41;;;;;;;0.22;0.22;;;;;;;;;;10393139;28;20771;-79
2022/09/27 01:28:43;;;;;;;0.10;0.10;;;;;;;;;;10393218;28;20278;-79
2022/09/27 01:34:02;;;;;;;0.03;0.03;;;;;;;;;;10391299;28;20213;-80
2022/09/27 01:39:16;;;;;;;0.85;0.20;;;;;;;;;;10398302;28;20322;-80
2022/09/27 01:44:40;;;;;;;0.20;0.20;;;;;;;;;;10398685;28;20211;-79
2022/09/27 01:49:49;;;;;;;0.10;0.10;;;;;;;;;;10396429;28;20219;-80
2022/09/27 01:54:52;;;;;;;0.25;0.25;;;;;;;;;;10385792;28;20268;-79
2022/09/27 02:00:13;;;;;;;0.00;0.00;;;;;;;;;;10401108;28;20215;-80
2022/09/27 02:05:17;;;;;;;0.00;0.00;;;;;;;;;;10398049;28;20201;-79
2022/09/27 02:10:22;;;;;;;0.05;0.05;;;;;;;;;;10394877;28;20290;-80
2022/09/27 02:15:28;;;;;;;0.20;0.20;;;;;;;;;;10395356;28;20217;-80
2022/09/27 02:20:55;;;;;;;0.20;0.08;;;;;;;;;;10416397;28;20222;-80
2022/09/27 02:26:01;;;;;;;2.25;0.10;;;;;;;;;;10407160;28;20753;-80
2022/09/27 02:31:03;;;;;;;0.00;0.00;;;;;;;;;;10385862;28;20237;-80
2022/09/27 02:36:08;;;;;;;0.05;0.05;;;;;;;;;;10402865;28;20238;-79
2022/09/27 02:41:17;;;;;;;1.10;0.28;;;;;;;;;;10383490;28;20222;-79
2022/09/27 02:46:30;;;;;;;0.00;0.00;;;;;;;;;;10403108;28;20296;-79
2022/09/27 02:51:31;;;;;;;0.10;0.10;;;;;;;;;;10393112;28;20215;-80
2022/09/27 02:56:51;;;;;;;0.00;0.00;;;;;;;;;;10407125;28;20210;-79
2022/09/27 03:02:27;;;;;;;0.10;0.10;;;;;;;;;;10409144;28;20207;-79
2022/09/27 03:07:54;;;;;;;0.00;0.00;;;;;;;;;;10416520;28;20219;-79
2022/09/27 03:12:57;;;;;;;0.00;0.00;;;;;;;;;;10412400;28;20220;-80
2022/09/27 03:17:59;;;;;;;0.10;0.10;;;;;;;;;;10388882;28;20304;-81
2022/09/27 03:23:08;;;;;;;0.05;0.05;;;;;;;;;;10408875;28;20217;-78
2022/09/27 03:28:09;;;;;;;0.00;0.00;;;;;;;;;;10404126;28;20221;-78
2022/09/27 03:33:13;;;;;;;0.10;0.10;;;;;;;;;;10394326;28;20301;-79
2022/09/27 03:38:14;;;;;;;0.10;0.10;;;;;;;;;;10400194;28;20214;-78
2022/09/27 03:43:15;;;;;;;0.20;0.20;;;;;;;;;;10406793;28;20291;-78
2022/09/27 03:48:19;;;;;;;0.10;0.10;;;;;;;;;;10408580;28;20222;-78
2022/09/27 03:53:20;;;;;;;0.00;0.00;;;;;;;;;;10412432;28;20208;-78
2022/09/27 03:58:21;;;;;;;0.45;0.45;;;;;;;;;;10408878;28;20826;-80
2022/09/27 04:03:22;;;;;;;0.00;0.00;;;;;;;;;;10414144;28;20282;-81
2022/09/27 04:08:44;;;;;;;0.00;0.00;;;;;;;;;;10418329;28;20226;-80
2022/09/27 04:13:48;;;;;;;0.00;0.00;;;;;;;;;;10403214;28;20212;-80
2022/09/27 04:18:49;;;;;;;0.10;0.10;;;;;;;;;;10407758;28;20223;-80
2022/09/27 04:24:11;;;;;;;0.10;0.10;;;;;;;;;;10400426;28;20210;-78
2022/09/27 04:29:13;;;;;;;0.20;0.20;;;;;;;;;;10394187;28;20215;-78
2022/09/27 04:36:25;;;;;;;0.00;0.00;;;;;;;;;;10407120;28;20209;-78
2022/09/27 04:39:43;;;;;;;0.00;0.00;;;;;;;;;;10396655;28;20214;-79
2022/09/27 04:44:44;;;;;;;0.00;0.00;;;;;;;;;;10414139;28;20692;-79
2022/09/27 04:49:47;;;;;;;0.22;0.13;;;;;;;;;;10400552;28;20215;-79
2022/09/27 04:54:48;;;;;;;0.00;0.00;;;;;;;;;;10399368;28;20229;-78
2022/09/27 04:59:50;;;;;;;0.00;0.00;;;;;;;;;;10398558;28;20359;-77
2022/09/27 05:04:52;;;;;;;0.00;0.00;;;;;;;;;;10392169;28;20219;-77
2022/09/27 05:09:55;;;;;;;0.13;0.03;;;;;;;;;;10391742;28;20295;-78
2022/09/27 05:14:57;;;;;;;0.03;0.03;;;;;;;;;;10379440;28;20210;-78
2022/09/27 05:20:16;;;;;;;0.00;0.00;;;;;;;;;;10397796;28;20222;-78
2022/09/27 05:25:26;;;;;;;0.00;0.00;;;;;;;;;;10392964;28;20235;-78
2022/09/27 05:30:27;;;;;;;0.00;0.00;;;;;;;;;;10393698;28;20230;-78
2022/09/27 05:35:41;;;;;;;0.00;0.00;;;;;;;;;;10376695;28;20207;-78
2022/09/27 05:40:44;;;;;;;0.00;0.00;;;;;;;;;;10402923;28;20218;-79
2022/09/27 05:45:45;;;;;;;0.00;0.00;;;;;;;;;;10376880;28;20215;-78
2022/09/27 05:50:48;;;;;;;0.10;0.10;;;;;;;;;;10381592;28;20287;-77
2022/09/27 05:55:50;;;;;;;0.00;0.00;;;;;;;;;;10408158;28;20211;-78
2022/09/27 06:00:54;;;;;;;0.00;0.00;;;;;;;;;;10400719;28;20220;-78
2022/09/27 06:06:24;;;;;;;0.03;0.03;;;;;;;;;;10397208;28;20539;-78
2022/09/27 06:11:31;;;;;;;0.28;0.28;;;;;;;;;;10401177;28;20219;-78
2022/09/27 06:16:33;;;;;;;0.47;0.47;;;;;;;;;;10380351;28;20215;-78
2022/09/27 06:21:36;;;;;;;0.00;0.00;;;;;;;;;;10383010;28;20680;-78
2022/09/27 06:26:37;;;;;;;0.00;0.00;;;;;;;;;;10396373;28;20316;-77
2022/09/27 06:31:58;;;;;;;0.00;0.00;;;;;;;;;;10398496;28;20214;-77
2022/09/27 06:37:17;;;;;;;0.05;0.05;;;;;;;;;;10398519;28;20218;-77
2022/09/27 06:42:19;;;;;;;0.05;0.05;;;;;;;;;;10401444;28;20685;-77
2022/09/27 06:47:43;;;;;;;0.05;0.05;;;;;;;;;;10402944;28;21021;-77
2022/09/27 06:53:11;;;;;;;0.00;0.00;;;;;;;;;;10393462;28;20255;-78
2022/09/27 07:04:10;;;;;;;0.00;0.00;;;;;;;;;;10410522;28;20210;-77
2022/09/27 07:09:23;;;;;;;0.00;0.00;;;;;;;;;;10401759;28;20230;-77
2022/09/27 07:14:26;;;;;;;0.00;0.00;;;;;;;;;;10399690;28;20224;-78
2022/09/27 07:19:28;;;;;;;0.00;0.00;;;;;;;;;;10391274;28;20798;-78
2022/09/27 07:24:30;;;;;;;0.00;0.00;;;;;;;;;;10404242;28;20211;-78
2022/09/27 07:29:31;;;;;;;0.10;0.10;;;;;;;;;;10394641;28;21174;-77
2022/09/27 07:34:33;;;;;;;0.10;0.10;;;;;;;;;;10399989;28;20200;-77
2022/09/27 07:39:36;;;;;;;0.00;0.00;;;;;;;;;;10400541;28;20350;-78
2022/09/27 07:44:37;;;;;;;0.17;0.17;;;;;;;;;;10381398;28;22525;-77
2022/09/27 07:49:54;;;;;;;0.32;0.10;;;;;;;;;;10395575;28;20219;-78
2022/09/27 07:55:12;;;;;;;0.00;0.00;;;;;;;;;;10405744;28;20199;-77
2022/09/27 08:00:25;;;;;;;0.13;0.13;;;;;;;;;;10381099;28;20938;-78
2022/09/27 08:05:26;;;;;;;0.00;0.00;;;;;;;;;;10400145;28;20724;-77
2022/09/27 08:10:30;;;;;;;1.10;0.40;;;;;;;;;;10392492;28;20310;-78
2022/09/27 08:15:34;;;;;;;0.00;0.00;;;;;;;;;;10370486;28;20241;-78
2022/09/27 08:20:36;;;;;;;0.22;0.22;;;;;;;;;;10396326;28;20312;-78
2022/09/27 08:26:00;;;;;;;0.00;0.00;;;;;;;;;;10386380;28;20722;-78
2022/09/27 08:31:07;;;;;;;0.00;0.00;;;;;;;;;;10399398;28;20286;-78
2022/09/27 08:36:12;;;;;;;0.00;0.00;;;;;;;;;;10402928;28;20231;-78
2022/09/27 08:41:25;;;;;;;0.10;0.10;;;;;;;;;;10395539;28;20211;-78
2022/09/27 08:46:37;;;;;;;0.88;0.63;;;;;;;;;;10391197;28;20238;-79
2022/09/27 08:51:39;;;;;;;0.10;0.10;;;;;;;;;;10412144;28;20234;-78
2022/09/27 08:56:41;;;;;;;0.75;0.75;;;;;;;;;;10395645;28;20321;-79
2022/09/27 09:01:42;;;;;;;0.10;0.10;;;;;;;;;;10419799;28;20554;-78
2022/09/27 09:07:05;;;;;;;0.00;0.00;;;;;;;;;;10419075;28;20221;-78
2022/09/27 09:17:51;;;;;;;0.00;0.00;;;;;;;;;;10417224;28;20242;-79
2022/09/27 09:23:26;;;;;;;0.00;0.00;;;;;;;;;;10414503;28;20298;-79
2022/09/27 09:28:49;;;;;;;0.00;0.00;;;;;;;;;;10398730;28;20244;-79
2022/09/27 09:33:54;;;;;;;0.00;0.00;;;;;;;;;;10414895;28;20209;-79
2022/09/27 09:39:04;;;;;;;0.00;0.00;;;;;;;;;;10402973;28;21027;-79
2022/09/27 09:44:17;;;;;;;0.10;0.10;;;;;;;;;;10402559;28;21057;-79
2022/09/27 09:49:22;;;;;;;0.05;0.05;;;;;;;;;;10416206;28;20211;-80
2022/09/27 09:54:34;;;;;;;0.15;0.15;;;;;;;;;;10420517;28;20283;-80
2022/09/27 09:59:43;;;;;;;0.52;0.52;;;;;;;;;;10402541;28;21091;-80
2022/09/27 10:04:44;;;;;;;0.00;0.00;;;;;;;;;;10416976;28;20229;-80
2022/09/27 10:09:45;;;;;;;0.10;0.10;;;;;;;;;;10392363;28;20227;-79
2022/09/27 10:15:06;;;;;;;0.10;0.10;;;;;;;;;;10393037;28;20211;-80
2022/09/27 10:20:07;;;;;;;0.10;0.10;;;;;;;;;;10380328;28;20221;-79
2022/09/27 10:25:10;;;;;;;0.00;0.00;;;;;;;;;;10401272;28;20191;-80
2022/09/27 10:30:26;;;;;;;0.10;0.08;;;;;;;;;;10365806;28;20226;-80
2022/09/27 10:35:36;;;;;;;0.10;0.10;;;;;;;;;;10350795;28;20914;-79
2022/09/27 10:40:38;;;;;;;0.10;0.10;;;;;;;;;;10347205;28;20236;-79
2022/09/27 10:45:43;;;;;;;0.00;0.00;;;;;;;;;;10368863;28;20308;-79
2022/09/27 10:51:00;;;;;;;0.00;0.00;;;;;;;;;;10372066;28;20319;-81
2022/09/27 10:56:23;;;;;;;0.20;0.20;;;;;;;;;;10353864;28;20227;-80
2022/09/27 11:01:24;;;;;;;1.48;0.35;;;;;;;;;;10335573;28;20691;-80
2022/09/27 11:06:39;;;;;;;0.20;0.10;;;;;;;;;;10354079;28;20214;-79
2022/09/27 11:11:44;;;;;;;0.10;0.10;;;;;;;;;;10384281;28;20241;-79
2022/09/27 11:17:03;;;;;;;0.70;0.50;;;;;;;;;;10403805;28;20207;-78
2022/09/27 11:22:20;;;;;;;0.00;0.00;;;;;;;;;;10409393;28;20238;-78
2022/09/27 11:27:25;;;;;;;0.10;0.10;;;;;;;;;;10399647;28;20269;-79
2022/09/27 11:32:26;;;;;;;0.10;0.10;;;;;;;;;;10417845;28;20225;-78
2022/09/27 11:37:46;;;;;;;2.40;1.50;;;;;;;;;;10396377;28;20246;-78
2022/09/27 11:43:07;;;;;;;0.10;0.10;;;;;;;;;;10399162;28;20230;-78
2022/09/27 11:48:22;;;;;;;0.10;0.10;;;;;;;;;;10398221;28;20280;-78
2022/09/27 11:53:36;;;;;;;0.20;0.20;;;;;;;;;;10396382;28;20409;-78
2022/09/27 11:58:53;;;;;;;0.10;0.10;;;;;;;;;;10400993;28;20606;-78
2022/09/27 12:04:05;;;;;;;0.00;0.00;;;;;;;;;;10381488;28;20251;-78
2022/09/27 12:09:12;;;;;;;0.10;0.10;;;;;;;;;;10393425;28;20225;-77
2022/09/27 12:14:19;;;;;;;0.00;0.00;;;;;;;;;;10375085;28;20225;-80
2022/09/27 12:19:23;;;;;;;0.00;0.00;;;;;;;;;;10398627;28;20770;-77
2022/09/27 12:24:41;;;;;;;0.15;0.15;;;;;;;;;;10393095;28;20993;-78
2022/09/27 12:30:02;;;;;;;0.00;0.00;;;;;;;;;;10393169;28;20226;-80
2022/09/27 12:35:09;;;;;;;0.00;0.00;;;;;;;;;;10392360;28;20294;-80
2022/09/27 12:40:31;;;;;;;0.00;0.00;;;;;;;;;;10407142;28;20302;-80
2022/09/27 12:45:36;;;;;;;0.00;0.00;;;;;;;;;;10391301;28;20214;-78
2022/09/27 12:50:42;;;;;;;0.00;0.00;;;;;;;;;;10397969;28;20215;-78
2022/09/27 12:55:55;;;;;;;0.00;0.00;;;;;;;;;;10369122;28;20211;-78
2022/09/27 13:01:06;;;;;;;0.00;0.00;;;;;;;;;;10398528;28;20383;-80
2022/09/27 13:06:07;;;;;;;0.00;0.00;;;;;;;;;;10398851;28;20212;-79
2022/09/27 13:11:25;;;;;;;0.35;0.35;;;;;;;;;;10412076;28;20261;-81
2022/09/27 13:16:27;;;;;;;0.00;0.00;;;;;;;;;;10435057;28;20284;-78
2022/09/27 13:21:55;;;;;;;0.00;0.00;;;;;;;;;;10424147;28;20214;-78
2022/09/27 13:27:27;;;;;;;0.10;0.10;;;;;;;;;;10398529;28;20217;-78
2022/09/27 13:32:30;;;;;;;0.10;0.10;;;;;;;;;;10429989;28;20274;-78
2022/09/27 13:37:35;;;;;;;0.00;0.00;;;;;;;;;;10417373;28;20293;-79
2022/09/27 13:42:40;;;;;;;0.00;0.00;;;;;;;;;;10425703;28;20592;-80
2022/09/27 13:47:44;;;;;;;0.00;0.00;;;;;;;;;;10423065;28;20226;-78
2022/09/27 13:52:57;;;;;;;0.00;0.00;;;;;;;;;;10415575;28;20214;-78
2022/09/27 13:58:02;;;;;;;0.00;0.00;;;;;;;;;;10395057;28;20229;-79
2022/09/27 14:03:11;;;;;;;0.10;0.10;;;;;;;;;;10418363;28;20233;-78
2022/09/27 14:08:18;;;;;;;0.00;0.00;;;;;;;;;;10421027;28;20279;-78
2022/09/27 14:13:20;;;;;;;0.00;0.00;;;;;;;;;;10402317;28;20251;-78
2022/09/27 14:18:32;;;;;;;1.23;0.73;;;;;;;;;;10410443;28;20226;-78
2022/09/27 14:23:33;;;;;;;0.00;0.00;;;;;;;;;;10391518;28;20612;-78
2022/09/27 14:28:41;;;;;;;0.00;0.00;;;;;;;;;;10371443;28;20527;-78
2022/09/27 14:33:50;;;;;;;0.00;0.00;;;;;;;;;;10382100;28;20217;-78
2022/09/27 14:38:51;;;;;;;0.00;0.00;;;;;;;;;;10395189;28;20236;-78
2022/09/27 14:43:58;;;;;;;0.00;0.00;;;;;;;;;;10367076;28;20260;-78
2022/09/27 14:49:12;;;;;;;0.05;0.05;;;;;;;;;;10399472;28;20764;-78
2022/09/27 14:54:19;;;;;;;0.00;0.00;;;;;;;;;;10386011;28;20210;-78
2022/09/27 14:59:25;;;;;;;0.22;0.22;;;;;;;;;;10400288;28;20207;-78
2022/09/27 15:04:27;;;;;;;0.00;0.00;;;;;;;;;;10400346;28;20216;-78
2022/09/27 15:09:30;;;;;;;0.10;0.00;;;;;;;;;;10395167;28;20222;-78
2022/09/27 15:14:32;;;;;;;0.00;0.00;;;;;;;;;;10401312;28;20215;-77
2022/09/27 15:19:33;;;;;;;0.00;0.00;;;;;;;;;;10404551;28;20647;-77
2022/09/27 15:24:44;;;;;;;0.00;0.00;;;;;;;;;;10405108;28;20230;-78
2022/09/27 15:29:50;;;;;;;0.00;0.00;;;;;;;;;;10361603;28;20220;-78
2022/09/27 15:34:51;;;;;;;0.00;0.00;;;;;;;;;;10353985;28;20457;-78
2022/09/27 15:39:53;;;;;;;0.00;0.00;;;;;;;;;;10356825;28;20222;-78
2022/09/27 15:44:57;;;;;;;0.00;0.00;;;;;;;;;;10362802;28;20227;-77
2022/09/27 15:49:58;;;;;;;0.00;0.00;;;;;;;;;;10360607;28;20227;-77
2022/09/27 15:54:59;;;;;;;0.00;0.00;;;;;;;;;;10358780;28;20326;-78
2022/09/27 16:00:01;;;;;;;0.00;0.00;;;;;;;;;;10355362;28;20362;-79
2022/09/27 16:05:02;;;;;;;0.10;0.10;;;;;;;;;;10358059;28;20593;-78
2022/09/27 16:10:29;;;;;;;0.10;0.10;;;;;;;;;;10372839;28;20775;-78
2022/09/27 16:15:30;;;;;;;0.00;0.00;;;;;;;;;;10382538;28;20216;-78
2022/09/27 16:20:31;;;;;;;0.10;0.10;;;;;;;;;;10399387;28;20260;-78
2022/09/27 16:25:32;;;;;;;0.00;0.00;;;;;;;;;;10398773;28;20264;-78
2022/09/27 16:30:33;;;;;;;0.05;0.05;;;;;;;;;;10395311;28;20551;-79
2022/09/27 16:35:34;;;;;;;0.00;0.00;;;;;;;;;;10407104;28;20234;-78
2022/09/27 16:40:36;;;;;;;0.00;0.00;;;;;;;;;;10399232;28;20225;-78
2022/09/27 16:45:37;;;;;;;0.00;0.00;;;;;;;;;;10397664;28;20206;-77
2022/09/27 16:55:58;;;;;;;0.00;0.00;;;;;;;;;;10401349;28;20241;-77
2022/09/27 17:00:59;;;;;;;0.00;0.00;;;;;;;;;;10379270;28;20226;-78
2022/09/27 17:06:02;;;;;;;0.10;0.10;;;;;;;;;;10394878;28;20698;-77
2022/09/27 17:11:05;;;;;;;0.32;0.32;;;;;;;;;;10387101;28;20295;-77
2022/09/27 17:16:06;;;;;;;0.17;0.17;;;;;;;;;;10397665;28;20277;-78
2022/09/27 17:21:08;;;;;;;0.00;0.00;;;;;;;;;;10373496;28;20252;-78
2022/09/27 17:26:12;;;;;;;0.00;0.00;;;;;;;;;;10396539;28;20210;-78
2022/09/27 17:31:14;;;;;;;0.10;0.10;;;;;;;;;;10388408;28;20471;-78
2022/09/27 17:36:17;;;;;;;0.00;0.00;;;;;;;;;;10382936;28;20215;-78
2022/09/27 17:41:19;;;;;;;0.00;0.00;;;;;;;;;;10384626;28;20215;-79
2022/09/27 17:46:21;;;;;;;0.10;0.10;;;;;;;;;;10397658;28;20296;-78
2022/09/27 17:51:23;;;;;;;0.00;0.00;;;;;;;;;;10391289;28;20707;-77
2022/09/27 17:56:24;;;;;;;2.58;0.38;;;;;;;;;;10396043;28;20207;-78
2022/09/27 18:01:25;;;;;;;0.00;0.00;;;;;;;;;;10397038;28;20222;-78
2022/09/27 18:06:28;;;;;;;0.00;0.00;;;;;;;;;;10372242;28;20254;-78
2022/09/27 18:11:29;;;;;;;0.10;0.10;;;;;;;;;;10396590;28;20227;-78
2022/09/27 18:16:33;;;;;;;0.05;0.05;;;;;;;;;;10395366;28;20211;-78
2022/09/27 18:21:34;;;;;;;0.35;0.35;;;;;;;;;;10393882;28;20643;-77
2022/09/27 18:26:37;;;;;;;0.10;0.10;;;;;;;;;;10398540;28;20301;-77
2022/09/27 18:31:39;;;;;;;0.10;0.10;;;;;;;;;;10374655;28;20222;-78
2022/09/27 18:36:41;;;;;;;0.17;0.17;;;;;;;;;;10380705;28;20256;-78
2022/09/27 18:41:42;;;;;;;0.45;0.10;;;;;;;;;;10404144;28;20502;-77
2022/09/27 18:46:43;;;;;;;0.03;0.03;;;;;;;;;;10404369;28;20238;-78
2022/09/27 18:51:45;;;;;;;0.10;0.10;;;;;;;;;;10379149;28;20227;-78
2022/09/27 18:56:47;;;;;;;0.10;0.10;;;;;;;;;;10403747;28;20405;-78
2022/09/27 19:01:48;;;;;;;0.22;0.22;;;;;;;;;;10401203;28;20218;-77
2022/09/27 19:06:50;;;;;;;0.00;0.00;;;;;;;;;;10409771;28;20754;-78
2022/09/27 19:11:51;;;;;;;0.13;0.13;;;;;;;;;;10361220;28;20674;-78
2022/09/27 19:16:52;;;;;;;0.00;0.00;;;;;;;;;;10361467;28;20226;-78
2022/09/27 19:21:53;;;;;;;0.55;0.55;;;;;;;;;;10361650;28;20992;-79
2022/09/27 19:26:56;;;;;;;0.08;0.08;;;;;;;;;;10361616;28;20232;-78
2022/09/27 19:31:57;;;;;;;0.10;0.10;;;;;;;;;;10362448;28;20228;-78
2022/09/27 19:36:58;;;;;;;0.03;0.03;;;;;;;;;;10364261;28;20220;-78
2022/09/27 19:41:59;;;;;;;0.10;0.10;;;;;;;;;;10373311;28;20539;-78
2022/09/27 19:47:00;;;;;;;0.00;0.00;;;;;;;;;;10369592;28;20216;-78
2022/09/27 19:52:03;;;;;;;0.20;0.20;;;;;;;;;;10367870;28;20298;-78
2022/09/27 19:57:04;;;;;;;0.00;0.00;;;;;;;;;;10372830;28;20829;-78
2022/09/27 20:02:05;;;;;;;0.20;0.20;;;;;;;;;;10368277;28;20207;-79
2022/09/27 20:07:06;;;;;;;0.08;0.08;;;;;;;;;;10369143;28;20269;-78
2022/09/27 20:12:07;;;;;;;0.10;0.10;;;;;;;;;;10396776;28;20708;-79
2022/09/27 20:17:08;;;;;;;0.20;0.20;;;;;;;;;;10405906;28;20422;-79
2022/09/27 20:22:09;;;;;;;0.20;0.20;;;;;;;;;;10409900;28;20616;-78
2022/09/27 20:27:10;;;;;;;0.15;0.15;;;;;;;;;;10411871;28;20225;-78
2022/09/27 20:32:11;;;;;;;0.00;0.00;;;;;;;;;;10387215;28;20321;-78
2022/09/27 20:37:12;;;;;;;0.32;0.32;;;;;;;;;;10406269;28;21034;-78
2022/09/27 20:42:13;;;;;;;0.25;0.25;;;;;;;;;;10400951;28;20237;-78
2022/09/27 20:47:15;;;;;;;0.10;0.10;;;;;;;;;;10397921;28;20234;-79
2022/09/27 20:52:16;;;;;;;0.00;0.00;;;;;;;;;;10404349;28;20272;-79
2022/09/27 20:57:18;;;;;;;0.10;0.10;;;;;;;;;;10400641;28;20284;-78
2022/09/27 21:02:19;;;;;;;0.10;0.10;;;;;;;;;;10399838;28;20207;-78
2022/09/27 21:07:21;;;;;;;0.65;0.10;;;;;;;;;;10403906;28;20225;-77
2022/09/27 21:12:23;;;;;;;0.35;0.35;;;;;;;;;;10402973;28;20299;-78
2022/09/27 21:17:24;;;;;;;0.05;0.05;;;;;;;;;;10399186;28;20216;-78
2022/09/27 21:22:25;;;;;;;0.10;0.10;;;;;;;;;;10402366;28;20624;-77
2022/09/27 21:27:26;;;;;;;0.17;0.17;;;;;;;;;;10401307;28;20804;-77
2022/09/27 21:32:27;;;;;;;0.10;0.10;;;;;;;;;;10397748;28;20274;-78
2022/09/27 21:37:28;;;;;;;0.52;0.52;;;;;;;;;;10396640;28;20223;-78
2022/09/27 21:42:29;;;;;;;0.30;0.10;;;;;;;;;;10401170;28;20802;-77
2022/09/27 21:47:32;;;;;;;0.00;0.00;;;;;;;;;;10403014;28;20227;-78
2022/09/27 21:52:33;;;;;;;0.10;0.10;;;;;;;;;;10399528;28;20227;-77
2022/09/27 21:57:34;;;;;;;0.08;0.08;;;;;;;;;;10401380;28;20358;-79
2022/09/27 22:02:35;;;;;;;0.10;0.10;;;;;;;;;;10395345;28;20221;-78
2022/09/27 22:07:36;;;;;;;0.10;0.10;;;;;;;;;;10397849;28;20808;-77
2022/09/27 22:12:37;;;;;;;0.00;0.00;;;;;;;;;;10401605;28;20275;-78
2022/09/27 22:17:38;;;;;;;0.30;0.30;;;;;;;;;;10386190;28;20269;-78
2022/09/27 22:22:39;;;;;;;0.00;0.00;;;;;;;;;;10403842;28;20230;-78
2022/09/27 22:27:40;;;;;;;0.80;0.20;;;;;;;;;;10396755;28;20710;-79
2022/09/27 22:32:44;;;;;;;0.20;0.20;;;;;;;;;;10396330;28;20223;-78
2022/09/27 22:37:45;;;;;;;0.10;0.10;;;;;;;;;;10401557;28;20250;-78
2022/09/27 22:42:46;;;;;;;0.17;0.17;;;;;;;;;;10404650;28;20203;-78
2022/09/27 22:47:48;;;;;;;0.30;0.30;;;;;;;;;;10411128;28;20241;-78
2022/09/27 22:52:49;;;;;;;0.20;0.20;;;;;;;;;;10401024;28;20289;-78
2022/09/27 22:57:50;;;;;;;0.10;0.10;;;;;;;;;;10397003;28;20907;-79
2022/09/27 23:02:54;;;;;;;0.10;0.10;;;;;;;;;;10397412;28;20214;-77
2022/09/27 23:07:55;;;;;;;0.00;0.00;;;;;;;;;;10398218;28;20231;-78
2022/09/27 23:12:57;;;;;;;0.10;0.10;;;;;;;;;;10401603;28;20254;-78
2022/09/27 23:17:58;;;;;;;0.30;0.30;;;;;;;;;;10407429;28;20218;-78
2022/09/27 23:23:00;;;;;;;0.00;0.00;;;;;;;;;;10406472;28;20241;-78
2022/09/27 23:28:01;;;;;;;0.08;0.08;;;;;;;;;;10408345;28;20638;-77
2022/09/27 23:33:02;;;;;;;0.08;0.08;;;;;;;;;;10390798;28;20707;-78
2022/09/27 23:38:03;;;;;;;0.00;0.00;;;;;;;;;;10404069;28;20219;-78
2022/09/27 23:43:05;;;;;;;0.10;0.10;;;;;;;;;;10405144;28;20653;-78
2022/09/27 23:48:06;;;;;;;0.17;0.17;;;;;;;;;;10411403;28;20226;-78
2022/09/27 23:53:07;;;;;;;0.40;0.40;;;;;;;;;;10409295;28;20218;-78
2022/09/27 23:58:08;;;;;;;0.55;0.55;;;;;;;;;;10403483;28;20225;-77
